Time;durP1;ratioP1;P1;durP2;ratioP2;P2;SDS_P1;SDS_P2;PMS_P1;PMS_P2;Temp;Humidity;BMP_temperature;BMP_pressure;BME280_temperature;BME280_humidity;BME280_pressure;Samples;Min_cycle;Max_cycle;Signal;HPM_P1;HPM_P2
2022/04/22 00:01:24;;;;;;;15.75;11.23;;;3.50;99.90;;;3.32;100.00;99302.94;5001980;28;119779;-74
2022/04/22 00:03:52;;;;;;;16.52;11.43;;;3.60;99.90;;;3.30;100.00;99310.47;5000223;28;120157;-75
2022/04/22 00:06:21;;;;;;;15.85;10.93;;;3.50;99.90;;;3.26;100.00;99304.03;5000014;28;130561;-74
2022/04/22 00:08:50;;;;;;;17.02;11.68;;;3.50;99.90;;;3.19;100.00;99315.03;4999694;28;130293;-73
2022/04/22 00:11:32;;;;;;;15.73;11.40;;;3.50;99.90;;;3.18;100.00;99303.50;4999964;28;119620;-73
2022/04/22 00:14:04;;;;;;;16.58;11.40;;;3.50;99.90;;;3.08;100.00;99306.16;5002344;28;118687;-76
2022/04/22 00:16:34;;;;;;;17.02;11.55;;;3.50;99.90;;;3.17;100.00;99307.25;4999653;28;130997;-74
2022/04/22 00:19:03;;;;;;;16.40;11.85;;;3.50;99.90;;;3.19;100.00;99297.03;4999548;28;129983;-75
2022/04/22 00:21:32;;;;;;;17.52;12.05;;;3.50;99.90;;;3.15;100.00;99304.03;4998707;28;121831;-74
2022/04/22 00:24:01;;;;;;;19.02;11.68;;;3.40;99.90;;;3.12;100.00;99293.84;4998419;28;122044;-76
2022/04/22 00:26:31;;;;;;;15.82;11.23;;;3.40;99.90;;;3.12;100.00;99296.53;4999363;28;130153;-74
2022/04/22 00:29:00;;;;;;;16.50;11.90;;;3.40;99.90;;;3.11;100.00;99288.75;4999493;28;130078;-75
2022/04/22 00:31:29;;;;;;;17.25;11.73;;;3.30;99.90;;;3.12;100.00;99299.19;4999918;28;119919;-75
2022/04/22 00:33:58;;;;;;;17.05;12.10;;;3.30;99.90;;;3.06;100.00;99294.91;4999859;28;119888;-75
2022/04/22 00:36:27;;;;;;;18.77;12.30;;;3.30;99.90;;;3.09;100.00;99310.47;4998789;28;129957;-74
2022/04/22 00:38:56;;;;;;;18.77;12.00;;;3.30;99.90;;;3.08;100.00;99308.03;4999623;28;129528;-74
2022/04/22 00:41:24;;;;;;;19.05;12.85;;;3.30;99.90;;;3.02;100.00;99301.88;4999296;28;119672;-75
2022/04/22 00:43:55;;;;;;;17.83;12.30;;;3.30;99.90;;;2.93;100.00;99301.59;4999490;28;119685;-76
2022/04/22 00:46:24;;;;;;;20.27;13.23;;;3.30;99.90;;;2.96;100.00;99297.56;4999529;28;129564;-73
2022/04/22 00:48:52;;;;;;;19.15;12.68;;;3.30;99.90;;;2.95;100.00;99304.00;4999333;28;129405;-76
2022/04/22 00:51:22;;;;;;;18.63;12.88;;;3.30;99.90;;;2.98;100.00;99298.13;4999590;28;119861;-76
2022/04/22 00:53:52;;;;;;;20.80;12.88;;;3.30;99.90;;;2.99;100.00;99307.75;4998796;28;120150;-75
2022/04/22 00:56:21;;;;;;;18.25;12.90;;;3.20;99.90;;;3.06;100.00;99302.94;4998542;28;129939;-74
2022/04/22 00:58:52;;;;;;;18.05;12.45;;;3.20;99.90;;;2.92;100.00;99309.91;4999057;28;130490;-74
2022/04/22 01:01:22;;;;;;;18.27;12.52;;;3.20;99.90;;;2.93;100.00;99311.50;4997827;28;120360;-76
2022/04/22 01:12:08;;;;;;;18.23;13.00;;;3.10;99.90;;;2.80;100.00;99321.66;4999997;28;121756;-76
2022/04/22 01:14:37;;;;;;;18.95;13.07;;;3.20;99.90;;;2.76;100.00;99317.91;5000976;28;122194;-75
2022/04/22 01:17:07;;;;;;;20.83;13.57;;;3.30;99.90;;;2.79;100.00;99309.34;4997101;28;130726;-74
2022/04/22 01:19:36;;;;;;;21.30;13.70;;;3.20;99.90;;;2.74;100.00;99309.31;4997521;28;130257;-77
2022/04/22 01:22:07;;;;;;;21.48;14.18;;;3.20;99.90;;;2.91;100.00;99308.28;5000722;28;118839;-74
2022/04/22 01:24:36;;;;;;;20.25;13.88;;;3.30;99.90;;;2.97;100.00;99310.69;5000976;28;118660;-74
2022/04/22 01:27:06;;;;;;;21.88;14.60;;;3.10;99.90;;;2.82;100.00;99308.81;5000094;28;129142;-74
2022/04/22 01:29:34;;;;;;;21.23;14.13;;;3.10;99.90;;;2.79;100.00;99312.03;4998936;28;129528;-74
2022/04/22 01:32:03;;;;;;;23.77;15.57;;;3.20;99.90;;;2.85;100.00;99310.13;4999011;28;119600;-75
2022/04/22 01:34:33;;;;;;;20.00;13.90;;;3.20;99.90;;;2.96;100.00;99297.56;4999327;28;120341;-73
2022/04/22 01:37:02;;;;;;;23.33;15.10;;;3.10;99.90;;;2.96;100.00;99294.88;4997004;28;130091;-74
2022/04/22 01:39:32;;;;;;;23.70;15.73;;;3.10;99.90;;;2.95;100.00;99298.66;4998851;28;130000;-75
2022/04/22 01:42:01;;;;;;;25.90;16.65;;;3.20;99.90;;;2.96;100.00;99301.06;4998953;28;120017;-74
2022/04/22 01:44:29;;;;;;;24.27;16.50;;;3.20;99.90;;;2.95;100.00;99298.66;4999682;28;119866;-75
2022/04/22 01:46:57;;;;;;;23.38;16.60;;;3.20;99.90;;;2.95;100.00;99287.94;5000045;28;128998;-75
2022/04/22 01:49:26;;;;;;;22.85;15.88;;;3.10;99.90;;;2.93;100.00;99295.41;4998396;28;129581;-73
2022/04/22 01:51:56;;;;;;;25.90;17.15;;;3.00;99.90;;;2.96;100.00;99297.56;5000697;28;119205;-74
2022/04/22 01:54:24;;;;;;;26.52;16.98;;;3.00;99.90;;;2.92;100.00;99305.34;4999072;28;119502;-72
2022/04/22 01:56:54;;;;;;;25.90;17.08;;;3.00;99.90;;;2.83;100.00;99302.38;4982893;28;131105;-74
2022/04/22 01:59:22;;;;;;;25.10;17.25;;;3.00;99.90;;;2.85;100.00;99302.09;4998336;28;129334;-73
2022/04/22 02:01:51;;;;;;;24.48;15.70;;;3.00;99.90;;;2.87;100.00;99291.94;4997381;28;122565;-76
2022/04/22 02:04:19;;;;;;;26.70;16.10;;;3.00;99.90;;;2.83;100.00;99297.00;4998612;28;122376;-72
2022/04/22 02:06:47;;;;;;;26.00;17.05;;;3.00;99.90;;;2.81;100.00;99293.78;4986429;28;129516;-76
2022/04/22 02:09:16;;;;;;;23.90;17.00;;;3.00;99.90;;;2.78;100.00;99294.31;5001727;28;129580;-73
2022/04/22 02:11:45;;;;;;;25.15;17.02;;;3.00;99.90;;;2.75;100.00;99300.22;5001889;28;120222;-74
2022/04/22 02:14:15;;;;;;;24.42;15.43;;;3.00;99.90;;;2.72;100.00;99294.59;5003767;28;119265;-73
2022/04/22 02:16:43;;;;;;;27.35;17.33;;;2.90;99.90;;;2.71;100.00;99309.84;5003423;28;129064;-73
2022/04/22 02:19:11;;;;;;;24.85;16.45;;;3.00;99.90;;;2.70;100.00;99308.25;5003563;28;130921;-73
2022/04/22 02:21:40;;;;;;;25.20;16.02;;;2.90;99.90;;;2.69;100.00;99317.34;5001848;28;120191;-74
2022/04/22 02:24:08;;;;;;;24.05;16.15;;;2.90;99.90;;;2.66;100.00;99317.88;5001771;28;119604;-73
2022/04/22 02:29:21;;;;;;;23.45;15.95;;;2.80;99.90;;;2.68;100.00;99321.91;5001975;28;130150;-73
2022/04/22 02:31:52;;;;;;;25.80;16.35;;;2.70;99.90;;;2.61;100.00;99315.19;5003364;28;119358;-75
2022/04/22 02:34:22;;;;;;;24.30;16.08;;;2.70;99.90;;;2.60;100.00;99313.56;5001386;28;119333;-74
2022/04/22 02:36:51;;;;;;;24.73;16.45;;;2.70;99.90;;;2.54;100.00;99314.59;5001134;28;130154;-74
2022/04/22 02:39:20;;;;;;;26.17;16.67;;;2.70;99.90;;;2.48;100.00;99322.63;5000957;28;129840;-74
2022/04/22 02:47:23;;;;;;;24.15;15.88;;;2.70;99.90;;;2.47;100.00;99320.22;5000440;28;129668;-74
2022/04/22 02:49:52;;;;;;;26.27;17.02;;;2.80;99.90;;;2.46;100.00;99314.06;5000775;28;129971;-74
2022/04/22 02:52:20;;;;;;;25.08;16.50;;;2.80;99.90;;;2.61;100.00;99312.50;5000178;28;122731;-75
2022/04/22 02:54:49;;;;;;;24.17;15.98;;;2.80;99.90;;;2.55;100.00;99322.38;5002967;28;121788;-74
2022/04/22 02:57:18;;;;;;;24.08;16.08;;;2.90;99.90;;;2.71;100.00;99309.84;4999143;28;129808;-76
2022/04/22 02:59:48;;;;;;;23.98;15.60;;;2.80;99.90;;;2.63;100.00;99324.56;5000846;28;129704;-73
2022/04/22 03:02:16;;;;;;;22.23;15.98;;;2.90;99.90;;;2.67;100.00;99317.59;5000953;28;119942;-73
2022/04/22 03:04:45;;;;;;;24.63;15.60;;;2.80;99.90;;;2.69;100.00;99325.38;5001072;28;119978;-73
2022/04/22 03:07:14;;;;;;;27.08;16.63;;;2.80;99.90;;;2.60;100.00;99326.97;5000194;28;130442;-73
2022/04/22 03:09:42;;;;;;;27.00;16.48;;;2.90;99.90;;;2.73;100.00;99334.50;5000948;28;129614;-74
2022/04/22 03:12:13;;;;;;;24.35;15.38;;;2.90;99.90;;;2.78;100.00;99347.91;4999729;28;119868;-72
2022/04/22 03:14:43;;;;;;;23.73;16.40;;;2.90;99.90;;;2.91;100.00;99335.09;5003083;28;119173;-72
2022/04/22 03:17:13;;;;;;;21.63;15.35;;;2.80;99.90;;;2.92;100.00;99342.06;5016756;28;130277;-74
2022/04/22 03:19:42;;;;;;;23.88;16.38;;;2.80;99.90;;;2.87;100.00;99340.97;5000696;28;129855;-70
2022/04/22 03:22:11;;;;;;;21.52;14.90;;;2.90;99.90;;;2.75;100.00;99347.66;4996865;28;119532;-73
2022/04/22 03:24:39;;;;;;;22.60;15.68;;;2.90;99.90;;;2.81;100.00;99346.59;5000633;28;119548;-73
2022/04/22 03:27:08;;;;;;;21.92;15.52;;;2.90;99.90;;;3.06;100.00;99348.53;5000195;28;130661;-71
2022/04/22 03:29:38;;;;;;;23.10;15.75;;;3.00;99.90;;;2.96;100.00;99340.47;4999610;28;129955;-73
2022/04/22 03:32:11;;;;;;;20.25;14.45;;;3.00;99.90;;;3.23;100.00;99349.09;5000925;28;120720;-74
2022/04/22 03:34:41;;;;;;;23.77;15.40;;;3.10;99.90;;;3.07;100.00;99350.16;4999901;28;119133;-72
2022/04/22 03:37:09;;;;;;;21.92;15.55;;;3.10;99.90;;;3.12;100.00;99352.84;5000181;28;129934;-74
2022/04/22 03:39:38;;;;;;;22.10;15.02;;;3.20;99.90;;;3.11;100.00;99351.22;5001156;28;129109;-72
2022/04/22 03:42:08;;;;;;;21.10;14.82;;;3.30;99.90;;;3.40;100.00;99364.94;4999291;28;122334;-72
2022/04/22 03:44:36;;;;;;;19.15;14.18;;;3.30;99.90;;;3.44;100.00;99354.47;5017555;28;121478;-71
2022/04/22 03:47:07;;;;;;;20.23;14.00;;;3.40;99.90;;;3.37;100.00;99364.69;4998610;28;130274;-73
2022/04/22 03:49:36;;;;;;;22.50;15.10;;;3.50;99.90;;;3.77;100.00;99376.47;4999282;28;129802;-72
2022/04/22 03:52:07;;;;;;;19.88;14.50;;;3.50;99.90;;;3.91;100.00;99369.50;5000357;28;119554;-72
2022/04/22 03:54:35;;;;;;;20.90;14.07;;;3.50;99.90;;;3.96;100.00;99361.44;5001251;28;119217;-71
2022/04/22 03:59:51;;;;;;;18.92;13.43;;;3.70;99.90;;;3.93;100.00;99372.72;4999248;28;130062;-72
2022/04/22 04:02:19;;;;;;;19.10;12.35;;;3.70;99.90;;;4.00;100.00;99366.25;5003141;28;119447;-72
2022/04/22 04:04:48;;;;;;;19.23;13.00;;;3.70;99.90;;;4.00;100.00;99366.25;5000397;28;120186;-73
2022/04/22 04:07:18;;;;;;;18.02;12.30;;;3.80;99.90;;;4.10;100.00;99359.00;4998629;28;129951;-74
2022/04/22 04:18:10;;;;;;;18.33;13.15;;;3.90;99.90;;;4.15;100.00;99352.81;4999577;28;130643;-73
2022/04/22 04:23:25;;;;;;;18.10;13.40;;;3.90;99.90;;;3.92;100.00;99357.66;4999884;28;119299;-72
2022/04/22 04:25:54;;;;;;;19.30;12.52;;;3.90;99.90;;;4.24;100.00;99359.22;5001888;28;118983;-73
2022/04/22 04:28:23;;;;;;;16.17;12.85;;;3.90;99.90;;;4.18;100.00;99360.31;4997765;28;130312;-65
2022/04/22 04:30:51;;;;;;;16.90;12.68;;;4.00;99.90;;;4.27;100.00;99361.38;4997580;28;129530;-69
2022/04/22 04:33:20;;;;;;;18.40;13.10;;;4.10;99.90;;;4.64;100.00;99360.19;5000338;28;121642;-65
2022/04/22 04:35:48;;;;;;;16.05;12.75;;;4.20;99.90;;;4.94;100.00;99368.34;4999756;28;123315;-66
2022/04/22 04:38:17;;;;;;;15.52;12.52;;;4.30;99.90;;;5.02;100.00;99373.16;4999281;28;130348;-70
2022/04/22 04:40:47;;;;;;;15.48;12.13;;;4.40;99.90;;;5.20;99.31;99371.69;4997346;28;129414;-69
2022/04/22 04:43:17;;;;;;;15.35;12.23;;;4.50;99.90;;;5.27;98.84;99371.41;4999582;28;119721;-69
2022/04/22 04:45:46;;;;;;;18.70;13.63;;;4.60;95.00;;;5.38;99.00;99365.66;5001810;28;119344;-69
2022/04/22 04:48:14;;;;;;;18.55;12.25;;;4.60;50.20;;;5.34;98.94;99361.91;4997905;28;130298;-69
2022/04/22 04:50:44;;;;;;;17.80;12.13;;;4.60;19.60;;;5.28;97.65;99379.19;4999446;28;130148;-70
2022/04/22 04:53:13;;;;;;;16.80;11.45;;;4.60;1.00;;;5.46;98.45;99371.53;5018116;28;119187;-71
2022/04/22 04:55:42;;;;;;;14.70;11.52;;;4.80;1.00;;;5.58;97.12;99372.00;5001426;28;120286;-69
2022/04/22 04:58:12;;;;;;;16.33;12.18;;;4.90;1.00;;;5.64;96.63;99376.25;4996445;28;129848;-64
2022/04/22 05:00:41;;;;;;;17.02;12.18;;;5.00;1.00;;;5.63;97.17;99374.63;4998924;28;129699;-70
2022/04/22 05:03:09;;;;;;;15.13;11.57;;;5.10;1.00;;;6.19;94.56;99372.56;4999753;28;119922;-69
2022/04/22 05:05:37;;;;;;;17.58;11.45;;;5.30;1.00;;;6.38;93.38;99384.19;5001344;28;119963;-70
2022/04/22 05:08:08;;;;;;;17.73;12.10;;;5.40;1.00;;;5.84;94.01;99385.22;4998947;28;129927;-70
2022/04/22 05:10:38;;;;;;;14.48;11.25;;;5.20;1.00;;;6.30;93.23;99382.94;5001064;28;129102;-67
2022/04/22 05:13:06;;;;;;;15.52;11.10;;;5.50;1.00;;;5.91;93.27;99385.72;5001426;28;118698;-71
2022/04/22 05:15:36;;;;;;;14.55;12.07;;;5.30;1.00;;;6.31;93.22;99372.97;5001517;28;118689;-67
2022/04/22 05:18:06;;;;;;;15.73;12.55;;;5.40;1.00;;;6.19;93.08;99369.88;4998596;28;129899;-70
2022/04/22 05:20:34;;;;;;;15.10;11.45;;;5.30;1.00;;;5.51;94.62;99364.22;4998866;28;129132;-69
2022/04/22 05:23:02;;;;;;;15.35;12.40;;;5.10;1.00;;;5.35;96.78;99368.91;4998051;28;122191;-70
2022/04/22 05:25:31;;;;;;;15.95;12.00;;;5.00;1.00;;;5.16;97.90;99358.00;4999034;28;122145;-69
2022/04/22 05:27:59;;;;;;;15.68;12.05;;;5.00;1.00;;;5.87;96.93;99363.13;4998483;28;129644;-69
2022/04/22 05:33:15;;;;;;;17.88;13.00;;;5.50;1.00;;;6.61;94.13;99374.50;4999341;28;119318;-70
2022/04/22 05:35:44;;;;;;;16.95;12.15;;;5.70;1.00;;;6.91;91.04;99374.41;4998950;28;119043;-70
2022/04/22 05:38:15;;;;;;;13.98;11.75;;;5.90;1.00;;;6.81;91.29;99368.06;4998729;28;129841;-69
2022/04/22 05:40:46;;;;;;;14.82;12.13;;;6.00;1.00;;;6.80;92.04;99363.75;5002181;28;129937;-69
2022/04/22 05:43:14;;;;;;;16.00;12.25;;;5.90;1.00;;;6.73;91.18;99367.91;5002661;28;119993;-69
2022/04/22 05:45:43;;;;;;;16.55;12.77;;;6.00;1.00;;;6.76;92.62;99360.06;5004041;28;120008;-68
2022/04/22 05:48:12;;;;;;;15.85;12.57;;;6.00;1.00;;;6.91;91.31;99358.22;5002829;28;130190;-70
2022/04/22 05:50:43;;;;;;;16.08;12.57;;;6.10;1.00;;;7.16;91.01;99371.38;5002203;28;129603;-69
2022/04/22 05:53:11;;;;;;;16.17;12.15;;;6.30;1.00;;;7.27;90.75;99346.94;5002306;28;119799;-67
2022/04/22 05:55:40;;;;;;;16.15;12.88;;;6.30;1.00;;;7.40;90.12;99348.88;5002580;28;119264;-70
2022/04/22 05:58:09;;;;;;;17.60;12.65;;;6.40;1.00;;;7.48;90.06;99358.22;5002249;28;130030;-69
2022/04/22 06:00:37;;;;;;;15.85;11.05;;;6.50;1.00;;;7.65;89.00;99360.38;5002072;28;129512;-70
2022/04/22 06:03:06;;;;;;;17.73;12.90;;;6.70;1.00;;;8.07;87.80;99361.28;5003772;28;119145;-68
2022/04/22 06:05:35;;;;;;;17.02;12.32;;;6.80;1.00;;;7.27;89.15;99363.13;5002590;28;119992;-70
2022/04/22 06:10:56;;;;;;;16.73;12.68;;;6.70;1.00;;;7.43;89.96;99358.28;5001495;28;130261;-70
2022/04/22 06:13:24;;;;;;;16.90;12.93;;;6.90;1.00;;;7.65;89.58;99349.56;4999512;28;122019;-68
2022/04/22 06:15:52;;;;;;;14.13;12.40;;;7.00;1.00;;;7.94;88.06;99356.66;5001909;28;123213;-70
2022/04/22 06:18:21;;;;;;;13.40;11.15;;;7.30;1.00;;;8.58;85.81;99349.50;5001678;28;130221;-70
2022/04/22 06:20:51;;;;;;;14.38;12.10;;;7.50;1.00;;;8.98;84.48;99360.59;5003179;28;129639;-71
2022/04/22 06:23:21;;;;;;;18.00;12.30;;;7.60;1.00;;;9.34;82.33;99354.38;5001940;28;119589;-73
2022/04/22 06:25:49;;;;;;;16.10;11.02;;;7.90;1.00;;;8.81;82.75;99355.00;5001725;28;120500;-68
2022/04/22 06:28:18;;;;;;;14.35;11.88;;;7.80;1.00;;;8.91;83.58;99352.09;5001523;28;129872;-71
2022/04/22 06:30:48;;;;;;;16.80;11.98;;;7.80;1.00;;;8.66;84.46;99341.81;5001343;28;130599;-70
2022/04/22 06:33:18;;;;;;;14.55;11.65;;;7.70;1.00;;;8.02;86.42;99353.25;5001806;28;120852;-68
2022/04/22 06:35:47;;;;;;;18.10;12.55;;;7.50;1.00;;;9.02;84.01;99346.44;5020204;28;119778;-69
2022/04/22 06:38:18;;;;;;;17.05;12.05;;;7.80;1.00;;;8.79;83.79;99343.69;5001979;28;129843;-70
2022/04/22 06:46:22;;;;;;;14.02;11.80;;;8.10;1.00;;;8.72;84.18;99348.72;5003683;28;119646;-71
2022/04/22 06:48:51;;;;;;;13.20;11.32;;;8.00;1.00;;;8.69;85.01;99360.13;5001086;28;131004;-69
2022/04/22 06:51:22;;;;;;;12.82;11.23;;;8.00;1.00;;;9.10;84.08;99353.84;5000403;28;129656;-70
2022/04/22 06:53:52;;;;;;;14.98;11.77;;;8.20;1.00;;;9.29;82.13;99346.38;5001240;28;119595;-71
2022/04/22 06:56:27;;;;;;;15.30;12.45;;;8.40;1.00;;;9.45;81.29;99351.44;5001610;28;119303;-69
2022/04/22 06:58:56;;;;;;;15.55;12.38;;;8.40;1.00;;;9.18;82.52;99345.00;5000933;28;129508;-70
2022/04/22 07:01:26;;;;;;;14.52;11.65;;;8.40;1.00;;;9.05;83.59;99343.13;5000360;28;130616;-70
2022/04/22 07:03:55;;;;;;;14.25;10.93;;;8.40;1.00;;;8.90;83.32;99345.06;4999829;28;121995;-68
2022/04/22 07:06:24;;;;;;;13.27;10.88;;;8.20;1.00;;;8.79;84.57;99341.78;5000753;28;121924;-70
2022/04/22 07:08:53;;;;;;;14.13;11.38;;;8.30;1.00;;;9.31;83.39;99344.16;5000734;28;130634;-68
2022/04/22 07:11:25;;;;;;;14.88;11.30;;;8.50;1.00;;;9.54;80.56;99336.84;5000454;28;130134;-68
2022/04/22 07:13:54;;;;;;;13.68;11.13;;;8.60;1.00;;;9.60;80.73;99345.66;5003014;28;120372;-71
2022/04/22 07:16:24;;;;;;;12.95;10.68;;;8.80;1.00;;;9.87;78.85;99346.59;5000930;28;119610;-70
2022/04/22 07:18:53;;;;;;;14.02;10.93;;;9.00;1.00;;;10.12;77.95;99344.34;5000671;28;130276;-69
2022/04/22 07:21:22;;;;;;;12.25;9.90;;;9.30;1.00;;;11.30;73.64;99343.69;5000341;28;130370;-70
2022/04/22 07:23:52;;;;;;;11.43;9.57;;;9.80;1.00;;;11.48;72.98;99339.84;5000950;28;120271;-70
2022/04/22 07:26:23;;;;;;;12.48;9.98;;;10.00;1.00;;;11.51;71.27;99322.91;5002701;28;118719;-69
2022/04/22 07:28:53;;;;;;;12.15;10.10;;;10.10;1.00;;;11.58;70.76;99332.47;4999221;28;129941;-72
2022/04/22 07:31:22;;;;;;;12.77;9.80;;;10.00;1.00;;;11.68;69.80;99337.56;5015658;28;129979;-74
2022/04/22 07:33:51;;;;;;;12.80;9.25;;;10.10;1.00;;;11.94;71.04;99334.81;5000535;28;120187;-71
2022/04/22 07:36:21;;;;;;;11.18;9.27;;;10.20;1.00;;;11.68;69.10;99343.00;5000717;28;119861;-70
2022/04/22 07:38:49;;;;;;;9.77;8.75;;;10.20;1.00;;;12.40;67.81;99335.94;5000127;28;130165;-70
2022/04/22 07:41:23;;;;;;;12.65;9.45;;;10.60;1.00;;;11.90;68.08;99333.03;4998925;28;129648;-70
2022/04/22 07:46:48;;;;;;;10.25;8.63;;;10.60;1.00;;;12.52;65.46;99348.03;5001225;28;119839;-72
2022/04/22 07:49:20;;;;;;;10.82;8.85;;;10.70;1.00;;;11.24;69.99;99345.75;5000135;28;130265;-72
2022/04/22 07:51:49;;;;;;;11.90;8.52;;;10.10;1.00;;;11.53;69.41;99347.03;4996358;28;130948;-71
2022/04/22 07:54:18;;;;;;;10.68;8.60;;;10.10;1.00;;;11.83;67.44;99345.22;4998181;28;122500;-71
2022/04/22 07:56:46;;;;;;;12.55;9.20;;;10.30;1.00;;;11.81;67.66;99333.88;5001975;28;120541;-69
2022/04/22 07:59:16;;;;;;;10.38;8.43;;;10.20;1.00;;;11.86;66.75;99332.91;4999900;28;129914;-70
2022/04/22 08:01:44;;;;;;;10.75;8.30;;;10.20;1.00;;;10.82;70.95;99334.53;4999417;28;129611;-71
2022/04/22 08:04:13;;;;;;;12.60;8.95;;;9.70;1.00;;;10.84;72.05;99331.50;4998633;28;119700;-70
2022/04/22 08:06:41;;;;;;;10.68;8.48;;;9.60;1.00;;;10.58;71.98;99334.94;5000147;28;119651;-72
2022/04/22 08:09:10;;;;;;;12.00;8.90;;;9.70;1.00;;;11.58;69.62;99337.91;4999330;28;129817;-70
2022/04/22 08:11:38;;;;;;;11.18;8.38;;;10.00;1.00;;;11.02;69.94;99343.19;4999953;28;130362;-69
2022/04/22 08:14:06;;;;;;;10.88;9.48;;;9.90;1.00;;;10.12;73.43;99338.91;4999377;28;119632;-71
2022/04/22 08:16:36;;;;;;;11.55;9.48;;;9.50;1.00;;;10.46;73.06;99341.00;4999948;28;119339;-70
2022/04/22 08:19:04;;;;;;;11.25;9.38;;;9.40;1.00;;;10.87;71.43;99330.88;4998379;28;129952;-71
2022/04/22 08:21:33;;;;;;;11.23;8.88;;;9.60;1.00;;;11.74;68.26;99341.72;4998354;28;129553;-70
2022/04/22 08:24:02;;;;;;;10.88;8.82;;;10.10;1.00;;;11.82;67.66;99338.16;4999136;28;120434;-70
2022/04/22 08:26:32;;;;;;;10.27;8.32;;;10.30;1.00;;;11.77;67.60;99341.06;4999868;28;119604;-70
2022/04/22 08:29:00;;;;;;;11.57;9.05;;;10.40;1.00;;;11.96;67.40;99331.78;4999553;28;130549;-72
2022/04/22 08:31:29;;;;;;;10.52;8.50;;;10.40;1.00;;;11.73;67.60;99334.66;4999563;28;130028;-70
2022/04/22 08:33:59;;;;;;;10.80;8.07;;;10.30;1.00;;;11.82;67.55;99327.28;4999391;28;119877;-71
2022/04/22 08:36:30;;;;;;;9.80;7.93;;;10.30;1.00;;;11.40;67.25;99327.03;5000070;28;119415;-70
2022/04/22 08:38:59;;;;;;;10.07;8.18;;;10.10;1.00;;;11.26;67.58;99324.50;5001249;28;130228;-68
2022/04/22 08:41:28;;;;;;;11.45;8.63;;;10.00;1.00;;;11.19;68.67;99326.09;4999066;28;129479;-70
2022/04/22 08:43:58;;;;;;;11.00;8.50;;;9.80;1.00;;;10.54;70.99;99315.78;4990256;28;122128;-72
2022/04/22 08:52:01;;;;;;;11.50;8.82;;;9.40;1.00;;;10.45;72.84;99311.47;4979281;28;129730;-69
2022/04/22 08:54:31;;;;;;;12.65;9.77;;;9.40;1.00;;;9.68;75.98;99314.31;4979416;28;119984;-70
2022/04/22 08:57:00;;;;;;;12.38;9.68;;;9.10;1.00;;;9.45;77.09;99305.38;4964703;28;119244;-71
2022/04/22 08:59:29;;;;;;;13.88;10.35;;;9.00;1.00;;;9.86;76.31;99309.75;4980953;28;129125;-73
2022/04/22 09:01:57;;;;;;;12.60;9.82;;;9.30;1.00;;;10.92;72.32;99319.84;4979403;28;129505;-71
2022/04/22 09:04:27;;;;;;;10.75;8.27;;;9.90;1.00;;;11.87;67.40;99312.72;4979097;28;119830;-75
2022/04/22 09:06:56;;;;;;;15.13;8.95;;;10.50;1.00;;;12.89;65.15;99312.91;4979040;28;119665;-73
2022/04/22 09:09:25;;;;;;;13.82;8.57;;;11.10;1.00;;;12.95;64.36;99301.47;4977762;28;130167;-73
2022/04/22 09:11:54;;;;;;;12.15;8.63;;;11.20;1.00;;;13.05;63.18;99299.50;4980897;28;129323;-70
2022/04/22 09:14:25;;;;;;;16.45;9.30;;;11.20;1.00;;;13.08;63.02;99294.16;4980144;28;119576;-71
2022/04/22 09:16:54;;;;;;;12.20;8.07;;;11.20;1.00;;;13.24;61.93;99288.88;4984536;28;119285;-73
2022/04/22 09:19:22;;;;;;;11.18;8.20;;;11.30;1.00;;;12.30;64.27;99297.41;4982469;28;130041;-73
2022/04/22 09:22:01;;;;;;;12.38;8.00;;;10.90;1.00;;;11.86;66.05;99295.63;4984165;28;128298;-72
2022/04/22 09:24:30;;;;;;;14.68;9.82;;;10.70;1.00;;;13.03;64.65;99286.19;4982543;28;119354;-74
2022/04/22 09:27:05;;;;;;;12.65;9.20;;;11.10;1.00;;;12.33;64.29;99280.44;4983187;28;119537;-74
2022/04/22 09:29:45;;;;;;;9.60;7.20;;;11.10;1.00;;;13.86;60.39;99288.31;4982247;28;129719;-74
2022/04/22 09:32:21;;;;;;;8.75;6.78;;;11.80;1.00;;;13.07;61.07;99273.50;4984170;28;129646;-72
2022/04/22 09:34:50;;;;;;;9.75;7.53;;;11.60;1.00;;;12.71;62.15;99274.09;4980698;28;121966;-75
2022/04/22 09:42:57;;;;;;;10.57;7.25;;;11.30;1.00;;;14.63;58.96;99266.63;4980767;28;130836;-75
2022/04/22 09:45:36;;;;;;;9.68;6.65;;;12.30;1.00;;;14.90;55.83;99267.03;4984009;28;119438;-76
2022/04/22 09:48:14;;;;;;;8.65;6.10;;;12.80;1.00;;;14.59;56.51;99251.25;4982393;28;119995;-76
2022/04/22 09:50:46;;;;;;;9.60;7.25;;;12.60;1.00;;;13.61;60.11;99256.34;4980945;28;129523;-76
2022/04/22 09:53:16;;;;;;;8.43;6.78;;;11.90;1.00;;;13.98;59.12;99250.94;4982966;28;129760;-73
2022/04/22 09:55:53;;;;;;;8.70;6.85;;;12.10;1.00;;;13.97;58.25;99252.06;4982651;28;120585;-74
2022/04/22 09:58:26;;;;;;;11.32;7.65;;;12.30;1.00;;;13.98;58.31;99248.22;4982596;28;119688;-74
2022/04/22 10:01:00;;;;;;;11.43;7.10;;;12.40;1.00;;;12.89;60.89;99234.72;4980275;28;130305;-73
2022/04/22 10:03:31;;;;;;;8.65;6.97;;;11.70;1.00;;;13.71;60.97;99241.47;4981663;28;129365;-73
2022/04/22 10:06:01;;;;;;;8.80;6.50;;;12.00;1.00;;;13.72;59.35;99251.25;4982318;28;119498;-74
2022/04/22 10:08:36;;;;;;;11.30;6.32;;;12.20;1.00;;;13.77;58.57;99247.50;4981640;28;119538;-74
2022/04/22 10:11:06;;;;;;;8.32;6.72;;;12.20;1.00;;;13.00;62.24;99240.56;4981628;28;130454;-74
2022/04/22 10:13:42;;;;;;;8.73;6.50;;;11.90;1.00;;;13.11;60.92;99249.13;4984467;28;129143;-77
2022/04/22 10:16:11;;;;;;;9.05;7.13;;;11.80;1.00;;;12.82;62.17;99231.72;4967408;28;118757;-72
2022/04/22 10:18:42;;;;;;;10.70;6.90;;;11.60;1.00;;;12.28;64.05;99234.34;4982664;28;119697;-74
2022/04/22 10:21:12;;;;;;;7.63;6.38;;;11.30;1.00;;;11.60;65.60;99237.81;4984480;28;130178;-74
2022/04/22 10:23:44;;;;;;;9.20;6.75;;;11.00;1.00;;;12.09;64.81;99232.88;4981537;28;129964;-74
2022/04/22 10:26:13;;;;;;;9.40;7.32;;;11.20;1.00;;;12.09;64.41;99234.78;4980934;28;122444;-76
2022/04/22 10:28:45;;;;;;;11.13;7.07;;;11.00;1.00;;;11.47;66.42;99229.53;4984180;28;121052;-75
2022/04/22 10:31:15;;;;;;;8.40;6.85;;;10.70;1.00;;;11.14;68.71;99226.56;4980627;28;130051;-73
2022/04/22 10:33:46;;;;;;;9.70;6.85;;;10.60;1.00;;;11.37;68.52;99223.66;4983157;28;129718;-74
2022/04/22 10:36:15;;;;;;;10.77;7.30;;;10.70;1.00;;;11.48;66.99;99225.72;4981871;28;119255;-75
2022/04/22 10:38:47;;;;;;;10.60;6.90;;;10.70;1.00;;;11.06;68.08;99225.44;4981957;28;119202;-76
2022/04/22 10:41:18;;;;;;;7.88;6.38;;;10.60;1.00;;;10.66;69.62;99222.91;4983531;28;129847;-77
2022/04/22 10:47:13;;;;;;;17.42;7.38;;;10.30;1.00;;;10.53;70.23;99226.56;4981494;28;130305;-76
2022/04/22 10:49:39;;;;;;;11.93;7.40;;;10.30;1.00;;;10.82;69.21;99214.31;4984521;28;119243;-75
2022/04/22 10:52:14;;;;;;;9.85;7.60;;;10.40;1.00;;;11.64;66.84;99208.84;4979548;28;129728;-75
2022/04/22 10:55:10;;;;;;;9.88;7.10;;;10.80;1.00;;;12.11;64.33;99206.13;4981203;28;129467;-75
2022/04/22 10:57:42;;;;;;;10.68;6.55;;;11.10;1.00;;;11.94;64.30;99203.50;4981746;28;119697;-73
2022/04/22 11:00:30;;;;;;;11.38;7.57;;;11.20;1.00;;;12.58;62.47;99199.72;4981165;28;119914;-74
2022/04/22 11:03:11;;;;;;;10.30;7.30;;;11.50;1.00;;;13.10;60.07;99203.91;4981078;28;129941;-74
2022/04/22 11:05:44;;;;;;;9.55;6.38;;;11.80;1.00;;;14.06;57.90;99202.06;4980662;28;129281;-73
2022/04/22 11:08:32;;;;;;;7.93;6.47;;;12.40;1.00;;;14.12;56.22;99195.25;4983529;28;119621;-76
2022/04/22 11:11:23;;;;;;;11.20;6.60;;;12.30;1.00;;;12.75;60.09;99204.25;4980419;28;119931;-74
2022/04/22 11:13:52;;;;;;;10.55;7.32;;;11.80;1.00;;;11.83;67.51;99208.47;4980702;28;129789;-74
2022/04/22 11:16:29;;;;;;;10.07;7.65;;;11.20;1.00;;;12.17;70.14;99212.97;4980745;28;129506;-74
2022/04/22 11:19:27;;;;;;;11.73;8.55;;;11.00;1.00;;;12.29;69.63;99189.69;4979770;28;122088;-77
2022/04/22 11:21:58;;;;;;;10.38;7.65;;;10.90;1.00;;;13.29;68.29;99179.69;4980934;28;122177;-77
2022/04/22 11:24:29;;;;;;;9.98;7.85;;;11.50;1.00;;;14.68;65.27;99192.66;4982176;28;129761;-77